createdAt,value
2024-05-09T00:02:07.477Z,90249.72
2024-05-09T00:04:33.964Z,90242.91
2024-05-09T00:07:00.386Z,90256.00
2024-05-09T00:09:26.797Z,90250.69
2024-05-09T00:11:53.340Z,90246.38
2024-05-09T00:14:19.938Z,90244.47
2024-05-09T00:16:46.404Z,90249.88
2024-05-09T00:19:13.094Z,90251.56
2024-05-09T00:21:39.656Z,90253.84
2024-05-09T00:24:06.076Z,90248.00
2024-05-09T00:26:32.515Z,90246.31
2024-05-09T00:28:58.994Z,90253.81
2024-05-09T00:31:25.484Z,90253.16
2024-05-09T00:33:52.055Z,90240.28
2024-05-09T00:36:18.531Z,90250.16
2024-05-09T00:38:44.931Z,90247.06
2024-05-09T00:41:11.369Z,90248.56
2024-05-09T00:43:37.791Z,90253.38
2024-05-09T00:46:04.201Z,90243.81
2024-05-09T00:48:30.810Z,90247.56
2024-05-09T00:50:57.358Z,90243.59
2024-05-09T00:53:23.827Z,90243.09
2024-05-09T00:55:50.270Z,90240.88
2024-05-09T00:58:16.696Z,90247.75
2024-05-09T01:00:43.280Z,90247.41
2024-05-09T01:03:12.005Z,90249.34
2024-05-09T01:05:40.467Z,90247.56
2024-05-09T01:08:07.458Z,90244.16
2024-05-09T01:10:35.476Z,90252.44
2024-05-09T01:13:02.876Z,90244.81
2024-05-09T01:15:29.325Z,90250.84
2024-05-09T01:17:56.285Z,90247.63
2024-05-09T01:20:31.728Z,90242.28
2024-05-09T01:23:06.543Z,90233.38
2024-05-09T01:25:33.008Z,90241.00
2024-05-09T01:27:59.406Z,90240.50
2024-05-09T01:30:32.922Z,90243.28
2024-05-09T01:33:02.088Z,90247.88
2024-05-09T01:35:28.753Z,90243.13
2024-05-09T01:37:55.261Z,90248.91
2024-05-09T01:40:28.660Z,90242.47
2024-05-09T01:43:01.947Z,90239.56
2024-05-09T01:45:28.332Z,90237.78
2024-05-09T01:47:54.871Z,90237.09
2024-05-09T01:50:33.047Z,90239.31
2024-05-09T01:53:03.945Z,90239.38
2024-05-09T01:55:30.370Z,90240.19
2024-05-09T01:57:56.797Z,90239.47
2024-05-09T02:00:33.719Z,90232.75
2024-05-09T02:03:05.685Z,90230.88
2024-05-09T02:05:32.530Z,90234.25
2024-05-09T02:07:59.031Z,90230.47
2024-05-09T02:10:31.959Z,90226.72
2024-05-09T02:12:59.543Z,90226.72
2024-05-09T02:15:25.949Z,90230.81
2024-05-09T02:17:52.578Z,90230.88
2024-05-09T02:20:29.618Z,90230.88
2024-05-09T02:23:00.420Z,90227.94
2024-05-09T02:25:26.881Z,90222.34
2024-05-09T02:27:53.291Z,90224.56
2024-05-09T02:30:29.875Z,90228.25
2024-05-09T02:33:04.588Z,90218.19
2024-05-09T02:35:31.300Z,90216.00
2024-05-09T02:37:57.840Z,90215.19
2024-05-09T02:40:33.206Z,90221.53
2024-05-09T02:43:03.515Z,90212.56
2024-05-09T02:45:29.943Z,90206.19
2024-05-09T02:47:56.555Z,90215.50
2024-05-09T02:50:29.587Z,90212.50
2024-05-09T02:53:03.084Z,90211.00
2024-05-09T02:55:29.515Z,90213.94
2024-05-09T02:57:55.910Z,90210.44
2024-05-09T03:00:29.457Z,90212.13
2024-05-09T03:03:03.655Z,90203.66
2024-05-09T03:05:30.235Z,90205.63
2024-05-09T03:07:56.728Z,90209.25
2024-05-09T03:10:28.338Z,90206.94
2024-05-09T03:12:55.465Z,90212.88
2024-05-09T03:15:22.001Z,90221.97
2024-05-09T03:17:48.633Z,90212.59
2024-05-09T03:20:23.185Z,90216.69
2024-05-09T03:22:52.701Z,90217.41
2024-05-09T03:25:20.440Z,90214.25
2024-05-09T03:27:46.843Z,90207.59
2024-05-09T03:30:25.618Z,90210.59
2024-05-09T03:32:57.426Z,90211.09
2024-05-09T03:35:24.040Z,90215.56
2024-05-09T03:37:50.552Z,90206.53
2024-05-09T03:40:23.388Z,90214.09
2024-05-09T03:42:52.595Z,90209.63
2024-05-09T03:45:19.010Z,90207.41
2024-05-09T03:47:45.712Z,90207.34
2024-05-09T03:50:18.425Z,90218.53
2024-05-09T03:52:52.294Z,90215.59
2024-05-09T03:55:18.723Z,90218.88
2024-05-09T03:57:45.105Z,90220.91
2024-05-09T04:00:17.887Z,90218.19
2024-05-09T04:02:51.885Z,90224.59
2024-05-09T04:05:18.422Z,90221.16
2024-05-09T04:07:44.899Z,90223.22
2024-05-09T04:10:17.364Z,90222.84
2024-05-09T04:12:50.593Z,90227.78
2024-05-09T04:15:16.989Z,90223.69
2024-05-09T04:17:43.552Z,90222.13
2024-05-09T04:20:15.167Z,90215.41
2024-05-09T04:22:44.800Z,90221.88
2024-05-09T04:25:11.217Z,90228.66
2024-05-09T04:27:37.619Z,90229.63
2024-05-09T04:30:06.154Z,90226.91
2024-05-09T04:32:34.398Z,90230.38
2024-05-09T04:35:00.921Z,90224.41
2024-05-09T04:37:27.341Z,90227.41
2024-05-09T04:39:53.734Z,90234.22
2024-05-09T04:42:20.217Z,90241.66
2024-05-09T04:44:46.608Z,90234.47
2024-05-09T04:47:13.254Z,90242.41
2024-05-09T04:49:39.768Z,90240.94
2024-05-09T04:52:06.200Z,90246.56
2024-05-09T04:54:36.291Z,90245.00
2024-05-09T04:57:03.230Z,90244.19
2024-05-09T04:59:29.744Z,90248.34
2024-05-09T05:01:56.311Z,90247.53
2024-05-09T05:04:22.856Z,90251.47
2024-05-09T05:06:49.273Z,90248.66
2024-05-09T05:09:15.675Z,90253.84
2024-05-09T05:11:42.143Z,90248.78
2024-05-09T05:14:08.706Z,90249.19
2024-05-09T05:16:35.112Z,90250.38
2024-05-09T05:19:01.637Z,90247.06
2024-05-09T05:21:28.078Z,90241.97
2024-05-09T05:23:54.493Z,90248.34
2024-05-09T05:26:20.912Z,90249.91
2024-05-09T05:28:47.368Z,90252.56
2024-05-09T05:31:13.897Z,90253.66
2024-05-09T05:33:40.408Z,90248.75
2024-05-09T05:36:06.881Z,90246.66
2024-05-09T05:38:33.314Z,90250.59
2024-05-09T05:40:59.713Z,90247.94
2024-05-09T05:43:26.096Z,90248.97
2024-05-09T05:45:52.489Z,90250.72
2024-05-09T05:48:19.272Z,90251.97
2024-05-09T05:50:46.003Z,90251.25
2024-05-09T05:53:12.663Z,90254.03
2024-05-09T05:55:39.430Z,90259.56
2024-05-09T05:58:05.949Z,90252.88
2024-05-09T06:00:38.726Z,90257.16
2024-05-09T06:03:06.894Z,90254.66
2024-05-09T06:05:33.576Z,90247.34
2024-05-09T06:08:00.249Z,90256.34
2024-05-09T06:10:36.956Z,90247.44
2024-05-09T06:13:06.081Z,90254.09
2024-05-09T06:15:32.493Z,90248.22
2024-05-09T06:17:59.400Z,90244.41
2024-05-09T06:20:34.642Z,90242.22
2024-05-09T06:23:03.742Z,90246.13
2024-05-09T06:25:30.215Z,90240.91
2024-05-09T06:27:56.650Z,90245.63
2024-05-09T06:30:30.340Z,90245.72
2024-05-09T06:33:04.198Z,90242.50
2024-05-09T06:35:31.025Z,90241.88
2024-05-09T06:37:57.622Z,90243.50
2024-05-09T06:40:29.269Z,90253.72
2024-05-09T06:43:00.775Z,90246.09
2024-05-09T06:45:27.175Z,90250.09
2024-05-09T06:47:53.827Z,90253.81
2024-05-09T06:50:24.161Z,90242.06
2024-05-09T06:52:54.463Z,90255.19
2024-05-09T06:55:20.885Z,90247.44
2024-05-09T06:57:47.306Z,90256.00
2024-05-09T07:00:19.206Z,90255.25
2024-05-09T07:02:53.852Z,90253.66
2024-05-09T07:05:20.395Z,90245.09
2024-05-09T07:07:46.938Z,90246.88
2024-05-09T07:10:21.527Z,90247.44
2024-05-09T07:12:51.928Z,90239.97
2024-05-09T07:15:18.298Z,90246.47
2024-05-09T07:17:44.749Z,90241.34
2024-05-09T07:20:16.582Z,90241.94
2024-05-09T07:22:49.902Z,90247.28
2024-05-09T07:25:16.318Z,90246.44
2024-05-09T07:27:42.720Z,90240.47
2024-05-09T07:30:11.560Z,90239.97
2024-05-09T07:32:38.220Z,90243.69
2024-05-09T07:35:04.857Z,90242.22
2024-05-09T07:37:31.291Z,90243.75
2024-05-09T07:39:57.684Z,90235.63
2024-05-09T07:42:24.097Z,90237.47
2024-05-09T07:44:50.473Z,90233.69
2024-05-09T07:48:28.959Z,90238.63
2024-05-09T07:51:54.755Z,90232.34
2024-05-09T07:55:24.297Z,90230.97
2024-05-09T07:57:50.831Z,90225.09
2024-05-09T08:00:23.549Z,90228.81
2024-05-09T08:02:53.632Z,90222.41
2024-05-09T08:05:20.206Z,90226.13
2024-05-09T08:07:46.652Z,90229.69
2024-05-09T08:10:15.476Z,90232.38
2024-05-09T08:12:45.342Z,90218.34
2024-05-09T08:15:11.790Z,90224.44
2024-05-09T08:17:38.270Z,90219.22
2024-05-09T08:20:05.718Z,90217.56
2024-05-09T08:22:32.289Z,90210.41
2024-05-09T08:24:58.726Z,90211.72
2024-05-09T08:27:25.174Z,90196.31
2024-05-09T08:29:51.596Z,90207.50
2024-05-09T08:32:18.027Z,90205.88
2024-05-09T08:34:44.632Z,90207.94
2024-05-09T08:37:15.757Z,90202.00
2024-05-09T08:39:47.957Z,90204.03
2024-05-09T08:42:14.370Z,90207.34
2024-05-09T08:44:40.757Z,90203.56
2024-05-09T08:47:10.376Z,90204.97
2024-05-09T08:49:37.801Z,90204.69
2024-05-09T08:52:05.664Z,90195.88
2024-05-09T08:54:32.143Z,90202.97
2024-05-09T08:56:58.594Z,90192.16
2024-05-09T08:59:24.992Z,90195.53
2024-05-09T09:01:51.480Z,90193.88
2024-05-09T09:04:18.064Z,90190.44
2024-05-09T09:06:44.663Z,90192.81
2024-05-09T09:09:11.128Z,90181.59
2024-05-09T09:11:37.584Z,90190.53
2024-05-09T09:14:03.982Z,90178.47
2024-05-09T09:16:30.431Z,90174.34
2024-05-09T09:18:57.057Z,90177.47
2024-05-09T09:21:23.598Z,90175.44
2024-05-09T09:23:49.999Z,90177.72
2024-05-09T09:26:16.424Z,90176.63
2024-05-09T09:28:42.835Z,90177.84
2024-05-09T09:31:09.296Z,90177.00
2024-05-09T09:33:36.245Z,90180.09
2024-05-09T09:36:03.064Z,90178.72
2024-05-09T09:38:29.462Z,90176.31
2024-05-09T09:40:55.946Z,90165.50
2024-05-09T09:43:22.901Z,90173.63
2024-05-09T09:45:49.638Z,90168.03
2024-05-09T09:48:16.150Z,90165.41
2024-05-09T09:50:42.624Z,90171.03
2024-05-09T09:53:09.004Z,90169.59
2024-05-09T09:55:35.422Z,90171.31
2024-05-09T09:58:02.929Z,90173.97
2024-05-09T10:00:33.092Z,90165.56
2024-05-09T10:03:00.714Z,90170.25
2024-05-09T10:05:27.648Z,90163.34
2024-05-09T10:07:54.233Z,90162.63
2024-05-09T10:10:27.079Z,90161.06
2024-05-09T10:12:58.127Z,90155.44
2024-05-09T10:15:24.574Z,90164.47
2024-05-09T10:17:51.065Z,90154.50
2024-05-09T10:20:21.971Z,90150.50
2024-05-09T10:22:51.856Z,90146.34
2024-05-09T10:25:18.387Z,90141.69
2024-05-09T10:27:44.866Z,90140.94
2024-05-09T10:30:17.718Z,90144.91
2024-05-09T10:32:48.070Z,90145.91
2024-05-09T10:35:14.544Z,90136.00
2024-05-09T10:37:40.941Z,90142.41
2024-05-09T10:40:14.010Z,90137.84
2024-05-09T10:42:43.786Z,90142.66
2024-05-09T10:45:10.203Z,90132.63
2024-05-09T10:47:36.642Z,90143.69
2024-05-09T10:50:05.917Z,90138.47
2024-05-09T10:52:34.165Z,90134.97
2024-05-09T10:55:02.285Z,90132.00
2024-05-09T10:57:30.278Z,90126.59
2024-05-09T10:59:56.710Z,90127.75
2024-05-09T11:02:23.371Z,90125.97
2024-05-09T11:04:50.173Z,90128.50
2024-05-09T11:07:16.678Z,90118.41
2024-05-09T11:09:43.156Z,90115.44
2024-05-09T11:12:09.645Z,90115.47
2024-05-09T11:14:36.092Z,90114.16
2024-05-09T11:17:02.552Z,90108.59
2024-05-09T11:19:29.023Z,90109.63
2024-05-09T11:21:55.523Z,90115.66
2024-05-09T11:24:21.998Z,90113.34
2024-05-09T11:26:48.399Z,90105.00
2024-05-09T11:29:17.932Z,90106.19
2024-05-09T11:31:45.900Z,90110.75
2024-05-09T11:34:12.356Z,90107.19
2024-05-09T11:36:38.902Z,90109.22
2024-05-09T11:39:05.376Z,90105.03
2024-05-09T11:41:31.828Z,90095.63
2024-05-09T11:43:58.255Z,90093.19
2024-05-09T11:46:24.725Z,90091.69
2024-05-09T11:48:51.456Z,90096.16
2024-05-09T11:51:18.005Z,90087.84
2024-05-09T11:53:44.403Z,90083.28
2024-05-09T11:56:10.843Z,90088.06
2024-05-09T11:58:37.248Z,90079.09
2024-05-09T12:01:03.743Z,90081.78
2024-05-09T12:03:30.397Z,90081.53
2024-05-09T12:05:57.136Z,90087.00
2024-05-09T12:08:23.641Z,90080.38
2024-05-09T12:10:50.340Z,90074.50
2024-05-09T12:13:16.958Z,90074.97
2024-05-09T12:15:43.410Z,90069.25
2024-05-09T12:18:10.042Z,90067.91
2024-05-09T12:20:39.246Z,90066.16
2024-05-09T12:23:06.764Z,90066.41
2024-05-09T12:25:33.273Z,90063.47
2024-05-09T12:27:59.972Z,90062.44
2024-05-09T12:30:35.359Z,90057.16
2024-05-09T12:33:05.338Z,90056.09
2024-05-09T12:35:31.966Z,90053.00
2024-05-09T12:37:58.390Z,90060.78
2024-05-09T12:40:34.210Z,90053.13
2024-05-09T12:43:03.782Z,90060.56
2024-05-09T12:45:30.243Z,90059.25
2024-05-09T12:47:56.757Z,90049.44
2024-05-09T12:50:29.928Z,90043.66
2024-05-09T12:52:59.318Z,90050.03
2024-05-09T12:55:25.712Z,90045.03
2024-05-09T12:57:52.226Z,90044.88
2024-05-09T13:00:24.035Z,90043.25
2024-05-09T13:02:57.635Z,90039.41
2024-05-09T13:05:24.473Z,90030.84
2024-05-09T13:07:51.047Z,90035.72
2024-05-09T13:10:25.537Z,90036.63
2024-05-09T13:12:58.025Z,90034.72
2024-05-09T13:15:24.463Z,90028.47
2024-05-09T13:17:50.910Z,90032.31
2024-05-09T13:20:26.057Z,90031.72
2024-05-09T13:22:58.362Z,90030.84
2024-05-09T13:25:24.763Z,90025.41
2024-05-09T13:27:51.196Z,90022.41
2024-05-09T13:30:26.309Z,90018.75
2024-05-09T13:33:01.061Z,90015.94
2024-05-09T13:35:27.564Z,90019.75
2024-05-09T13:37:53.972Z,90013.63
2024-05-09T13:40:29.851Z,90015.19
2024-05-09T13:43:00.549Z,90008.91
2024-05-09T13:45:27.014Z,90008.00
2024-05-09T13:47:53.585Z,90006.63
2024-05-09T13:50:28.154Z,90004.09
2024-05-09T13:53:00.242Z,89997.94
2024-05-09T13:55:26.666Z,90008.28
2024-05-09T13:57:53.179Z,90001.84
2024-05-09T14:00:31.802Z,90000.97
2024-05-09T14:03:06.140Z,89999.19
2024-05-09T14:05:32.682Z,89994.22
2024-05-09T14:07:59.233Z,89998.22
2024-05-09T14:10:29.000Z,89986.84
2024-05-09T14:12:57.866Z,89991.81
2024-05-09T14:15:24.324Z,89987.03
2024-05-09T14:17:50.728Z,89987.25
2024-05-09T14:20:27.969Z,89991.63
2024-05-09T14:22:57.719Z,89977.72
2024-05-09T14:25:24.264Z,89971.56
2024-05-09T14:27:50.888Z,89977.34
2024-05-09T14:30:22.976Z,89969.56
2024-05-09T14:32:57.073Z,89963.78
2024-05-09T14:35:23.561Z,89970.19
2024-05-09T14:37:49.951Z,89966.13
2024-05-09T14:40:30.514Z,89960.94
2024-05-09T14:43:03.257Z,89965.06
2024-05-09T14:45:29.825Z,89963.38
2024-05-09T14:47:56.540Z,89970.97
2024-05-09T14:50:28.209Z,89963.28
2024-05-09T14:53:01.445Z,89960.63
2024-05-09T14:55:27.867Z,89960.66
2024-05-09T14:57:54.432Z,89958.53
2024-05-09T15:00:28.635Z,89957.44
2024-05-09T15:02:59.422Z,89953.41
2024-05-09T15:05:26.011Z,89953.16
2024-05-09T15:07:52.455Z,89952.97
2024-05-09T15:10:26.618Z,89960.22
2024-05-09T15:12:59.990Z,89954.34
2024-05-09T15:15:26.734Z,89952.63
2024-05-09T15:17:53.278Z,89950.38
2024-05-09T15:20:27.707Z,89952.66
2024-05-09T15:23:00.561Z,89956.53
2024-05-09T15:25:27.009Z,89958.13
2024-05-09T15:27:53.602Z,89958.56
2024-05-09T15:30:28.181Z,89957.19
2024-05-09T15:32:57.883Z,89953.63
2024-05-09T15:35:24.426Z,89958.38
2024-05-09T15:37:50.872Z,89947.63
2024-05-09T15:40:26.252Z,89951.34
2024-05-09T15:43:01.816Z,89946.06
2024-05-09T15:45:28.306Z,89952.94
2024-05-09T15:47:54.768Z,89951.13
2024-05-09T15:50:28.846Z,89946.34
2024-05-09T15:53:02.829Z,89949.53
2024-05-09T15:55:29.220Z,89948.72
2024-05-09T15:57:55.653Z,89957.38
2024-05-09T16:00:29.066Z,89957.59
2024-05-09T16:03:03.097Z,89946.34
2024-05-09T16:05:29.699Z,89939.94
2024-05-09T16:07:56.164Z,89954.03
2024-05-09T16:10:26.053Z,89946.97
2024-05-09T16:12:58.313Z,89942.50
2024-05-09T16:15:24.733Z,89949.69
2024-05-09T16:17:51.133Z,89943.03
2024-05-09T16:20:29.018Z,89946.59
2024-05-09T16:23:03.183Z,89949.09
2024-05-09T16:25:29.581Z,89950.00
2024-05-09T16:27:56.116Z,89953.66
2024-05-09T16:30:31.390Z,89950.44
2024-05-09T16:33:01.563Z,89951.03
2024-05-09T16:35:28.164Z,89951.03
2024-05-09T16:37:54.560Z,89941.44
2024-05-09T16:40:29.377Z,89951.19
2024-05-09T16:43:01.231Z,89950.53
2024-05-09T16:45:27.791Z,89950.88
2024-05-09T16:47:54.287Z,89956.03
2024-05-09T16:50:28.734Z,89957.94
2024-05-09T16:52:58.499Z,89945.88
2024-05-09T16:55:25.003Z,89956.91
2024-05-09T16:57:51.529Z,89957.91
2024-05-09T17:00:26.431Z,89953.78
2024-05-09T17:03:02.785Z,89956.66
2024-05-09T17:05:29.336Z,89956.16
2024-05-09T17:07:55.867Z,89951.44
2024-05-09T17:10:29.284Z,89958.72
2024-05-09T17:12:59.171Z,89959.13
2024-05-09T17:15:25.565Z,89960.66
2024-05-09T17:17:52.027Z,89956.84
2024-05-09T17:20:28.920Z,89965.09
2024-05-09T17:23:00.032Z,89961.97
2024-05-09T17:25:26.559Z,89978.13
2024-05-09T17:27:53.053Z,89975.84
2024-05-09T17:30:28.586Z,89980.16
2024-05-09T17:32:59.239Z,89976.56
2024-05-09T17:35:25.689Z,89978.44
2024-05-09T17:37:52.092Z,89974.19
2024-05-09T17:40:27.374Z,89977.66
2024-05-09T17:42:59.061Z,89978.59
2024-05-09T17:45:25.470Z,89982.59
2024-05-09T17:47:52.109Z,89987.28
2024-05-09T17:50:26.677Z,89984.38
2024-05-09T17:52:57.504Z,89986.50
2024-05-09T17:55:23.928Z,89980.06
2024-05-09T17:57:50.388Z,89991.25
2024-05-09T18:00:24.677Z,89991.03
2024-05-09T18:03:00.454Z,89993.66
2024-05-09T18:05:27.018Z,89992.88
2024-05-09T18:07:53.460Z,89995.66
2024-05-09T18:10:25.760Z,90008.56
2024-05-09T18:12:59.325Z,90007.75
2024-05-09T18:15:25.763Z,90005.25
2024-05-09T18:17:52.309Z,90012.66
2024-05-09T18:20:28.714Z,90006.81
2024-05-09T18:23:03.988Z,90025.34
2024-05-09T18:25:30.413Z,90016.69
2024-05-09T18:27:56.831Z,90023.88
2024-05-09T18:30:28.310Z,90022.28
2024-05-09T18:33:00.792Z,90018.06
2024-05-09T18:35:27.367Z,90020.03
2024-05-09T18:37:53.809Z,90021.00
2024-05-09T18:40:27.366Z,90027.50
2024-05-09T18:42:57.828Z,90032.31
2024-05-09T18:45:24.255Z,90025.25
2024-05-09T18:47:50.760Z,90031.66
2024-05-09T18:50:24.735Z,90034.72
2024-05-09T18:52:58.665Z,90033.16
2024-05-09T18:55:25.055Z,90038.38
2024-05-09T18:57:51.510Z,90041.63
2024-05-09T19:00:30.888Z,90039.94
2024-05-09T19:03:02.036Z,90039.34
2024-05-09T19:05:28.734Z,90042.34
2024-05-09T19:07:55.204Z,90050.13
2024-05-09T19:10:22.875Z,90055.28
2024-05-09T19:12:52.640Z,90063.91
2024-05-09T19:15:19.069Z,90061.19
2024-05-09T19:17:45.592Z,90060.38
2024-05-09T19:20:24.669Z,90067.69
2024-05-09T19:22:55.235Z,90075.44
2024-05-09T19:25:21.656Z,90077.94
2024-05-09T19:27:48.105Z,90084.44
2024-05-09T19:30:21.869Z,90085.00
2024-05-09T19:32:56.509Z,90086.59
2024-05-09T19:35:22.952Z,90092.19
2024-05-09T19:37:49.334Z,90099.84
2024-05-09T19:40:24.533Z,90099.03
2024-05-09T19:42:56.559Z,90103.25
2024-05-09T19:45:22.963Z,90101.03
2024-05-09T19:47:49.511Z,90099.47
2024-05-09T19:50:22.490Z,90112.69
2024-05-09T19:52:53.255Z,90123.53
2024-05-09T19:55:19.683Z,90118.31
2024-05-09T19:57:46.078Z,90124.47
2024-05-09T20:00:17.922Z,90121.88
2024-05-09T20:02:48.769Z,90130.75
2024-05-09T20:05:15.417Z,90124.53
2024-05-09T20:07:41.906Z,90125.66
2024-05-09T20:10:16.458Z,90132.94
2024-05-09T20:12:47.090Z,90134.44
2024-05-09T20:15:13.508Z,90132.69
2024-05-09T20:17:39.968Z,90136.63
2024-05-09T20:20:09.305Z,90133.50
2024-05-09T20:22:40.072Z,90140.28
2024-05-09T20:25:06.595Z,90134.28
2024-05-09T20:27:33.072Z,90147.59
2024-05-09T20:29:59.499Z,90146.56
2024-05-09T20:32:26.070Z,90139.69
2024-05-09T20:34:52.578Z,90145.28
2024-05-09T20:37:19.001Z,90150.19
2024-05-09T20:39:45.448Z,90148.53
2024-05-09T20:42:11.855Z,90146.78
2024-05-09T20:44:38.260Z,90148.56
2024-05-09T20:47:04.653Z,90154.13
2024-05-09T20:49:31.105Z,90161.91
2024-05-09T20:51:57.665Z,90155.75
2024-05-09T20:54:24.063Z,90158.88
2024-05-09T20:56:50.459Z,90155.56
2024-05-09T20:59:16.861Z,90159.81
2024-05-09T21:01:44.968Z,90159.25
2024-05-09T21:04:13.012Z,90158.53
2024-05-09T21:06:39.602Z,90154.19
2024-05-09T21:09:06.023Z,90169.91
2024-05-09T21:11:32.550Z,90170.91
2024-05-09T21:13:59.018Z,90169.44
2024-05-09T21:16:25.565Z,90166.97
2024-05-09T21:18:52.083Z,90168.00
2024-05-09T21:21:18.518Z,90164.66
2024-05-09T21:23:44.921Z,90163.34
2024-05-09T21:26:11.335Z,90162.09
2024-05-09T21:28:37.820Z,90164.75
2024-05-09T21:31:04.302Z,90166.59
2024-05-09T21:33:30.891Z,90169.25
2024-05-09T21:35:57.395Z,90171.38
2024-05-09T21:38:23.781Z,90168.25
2024-05-09T21:40:50.336Z,90165.06
2024-05-09T21:43:16.909Z,90171.25
2024-05-09T21:45:43.479Z,90171.66
2024-05-09T21:48:09.950Z,90176.59
2024-05-09T21:50:40.645Z,90169.50
2024-05-09T21:53:08.657Z,90173.19
2024-05-09T21:55:35.155Z,90176.22
2024-05-09T21:58:01.765Z,90178.09
2024-05-09T22:00:35.273Z,90176.28
2024-05-09T22:03:04.460Z,90189.28
2024-05-09T22:05:31.213Z,90179.94
2024-05-09T22:07:57.770Z,90180.38
2024-05-09T22:10:30.599Z,90184.41
2024-05-09T22:13:00.625Z,90188.94
2024-05-09T22:15:27.139Z,90192.00
2024-05-09T22:17:53.777Z,90193.84
2024-05-09T22:20:28.717Z,90195.22
2024-05-09T22:23:02.024Z,90198.81
2024-05-09T22:25:30.428Z,90204.88
2024-05-09T22:27:57.505Z,90198.50
2024-05-09T22:30:31.815Z,90194.72
2024-05-09T22:33:02.852Z,90198.81
2024-05-09T22:35:29.335Z,90199.66
2024-05-09T22:37:55.738Z,90197.31
2024-05-09T22:40:29.532Z,90195.56
2024-05-09T22:43:05.150Z,90197.78
2024-05-09T22:45:31.672Z,90199.66
2024-05-09T22:47:58.255Z,90194.69
2024-05-09T22:50:27.024Z,90202.50
2024-05-09T22:52:58.723Z,90201.34
2024-05-09T22:55:25.104Z,90197.78
2024-05-09T22:57:51.516Z,90200.94
2024-05-09T23:00:21.764Z,90198.63
2024-05-09T23:02:52.613Z,90197.59
2024-05-09T23:05:19.171Z,90201.56
2024-05-09T23:07:45.692Z,90205.16
2024-05-09T23:10:17.196Z,90200.16
2024-05-09T23:12:48.097Z,90196.38
2024-05-09T23:15:14.571Z,90205.88
2024-05-09T23:17:41.018Z,90209.50
2024-05-09T23:20:11.345Z,90204.03
2024-05-09T23:22:38.172Z,90207.63
2024-05-09T23:25:04.637Z,90202.81
2024-05-09T23:27:31.069Z,90205.19
2024-05-09T23:29:57.463Z,90206.25
2024-05-09T23:32:23.927Z,90206.84
2024-05-09T23:34:50.384Z,90197.25
2024-05-09T23:37:16.869Z,90187.81
2024-05-09T23:39:43.330Z,90197.56
2024-05-09T23:42:09.736Z,90200.13
2024-05-09T23:44:36.120Z,90196.06
2024-05-09T23:47:02.532Z,90194.63
2024-05-09T23:49:28.989Z,90190.53
2024-05-09T23:51:55.487Z,90186.94
2024-05-09T23:54:22.005Z,90187.81
2024-05-09T23:56:48.438Z,90186.25
2024-05-09T23:59:14.841Z,90178.47
